sensor_id;sensor_type;location;lat;lon;timestamp;temperature;humidity
20672;DHT22;10495;50.922;4.760;2022-12-07T00:01:34;7.20;89.70
20672;DHT22;10495;50.922;4.760;2022-12-07T00:04:02;7.00;89.90
20672;DHT22;10495;50.922;4.760;2022-12-07T00:06:36;7.10;90.00
20672;DHT22;10495;50.922;4.760;2022-12-07T00:09:03;6.90;89.90
20672;DHT22;10495;50.922;4.760;2022-12-07T00:11:29;6.90;90.00
20672;DHT22;10495;50.922;4.760;2022-12-07T00:13:59;6.80;89.90
20672;DHT22;10495;50.922;4.760;2022-12-07T00:16:28;6.80;90.00
20672;DHT22;10495;50.922;4.760;2022-12-07T00:18:54;6.80;90.00
20672;DHT22;10495;50.922;4.760;2022-12-07T00:21:22;6.80;90.00
20672;DHT22;10495;50.922;4.760;2022-12-07T00:23:49;6.70;90.10
20672;DHT22;10495;50.922;4.760;2022-12-07T00:26:22;6.70;90.10
20672;DHT22;10495;50.922;4.760;2022-12-07T00:28:53;6.70;90.10
20672;DHT22;10495;50.922;4.760;2022-12-07T00:31:20;6.70;90.10
20672;DHT22;10495;50.922;4.760;2022-12-07T00:33:47;6.80;90.00
20672;DHT22;10495;50.922;4.760;2022-12-07T00:36:15;6.80;90.00
20672;DHT22;10495;50.922;4.760;2022-12-07T00:38:42;7.00;90.00
20672;DHT22;10495;50.922;4.760;2022-12-07T00:41:11;6.80;89.90
20672;DHT22;10495;50.922;4.760;2022-12-07T00:43:38;6.70;90.10
20672;DHT22;10495;50.922;4.760;2022-12-07T00:46:04;6.60;90.30
20672;DHT22;10495;50.922;4.760;2022-12-07T00:48:30;6.70;90.30
20672;DHT22;10495;50.922;4.760;2022-12-07T00:50:56;6.60;90.40
20672;DHT22;10495;50.922;4.760;2022-12-07T00:53:22;6.70;90.40
20672;DHT22;10495;50.922;4.760;2022-12-07T00:55:47;6.80;90.40
20672;DHT22;10495;50.922;4.760;2022-12-07T00:58:14;6.80;90.10
20672;DHT22;10495;50.922;4.760;2022-12-07T01:00:41;6.80;90.50
20672;DHT22;10495;50.922;4.760;2022-12-07T01:03:09;6.70;90.50
20672;DHT22;10495;50.922;4.760;2022-12-07T01:05:36;6.70;90.60
20672;DHT22;10495;50.922;4.760;2022-12-07T01:08:02;6.70;90.60
20672;DHT22;10495;50.922;4.760;2022-12-07T01:10:27;6.70;90.50
20672;DHT22;10495;50.922;4.760;2022-12-07T01:12:55;6.70;90.50
20672;DHT22;10495;50.922;4.760;2022-12-07T01:15:21;6.70;90.60
20672;DHT22;10495;50.922;4.760;2022-12-07T01:17:46;6.70;90.60
20672;DHT22;10495;50.922;4.760;2022-12-07T01:20:12;6.70;90.60
20672;DHT22;10495;50.922;4.760;2022-12-07T01:22:39;6.80;90.60
20672;DHT22;10495;50.922;4.760;2022-12-07T01:25:06;6.80;90.40
20672;DHT22;10495;50.922;4.760;2022-12-07T01:27:33;6.80;90.20
20672;DHT22;10495;50.922;4.760;2022-12-07T01:29:59;6.80;90.30
20672;DHT22;10495;50.922;4.760;2022-12-07T01:32:24;6.70;90.50
20672;DHT22;10495;50.922;4.760;2022-12-07T01:34:50;6.70;90.40
20672;DHT22;10495;50.922;4.760;2022-12-07T01:37:15;6.70;90.50
20672;DHT22;10495;50.922;4.760;2022-12-07T01:39:41;6.70;90.50
20672;DHT22;10495;50.922;4.760;2022-12-07T01:42:11;6.60;90.60
20672;DHT22;10495;50.922;4.760;2022-12-07T01:47:40;6.60;90.80
20672;DHT22;10495;50.922;4.760;2022-12-07T01:50:06;6.80;90.50
20672;DHT22;10495;50.922;4.760;2022-12-07T01:52:33;6.90;90.20
20672;DHT22;10495;50.922;4.760;2022-12-07T01:55:04;7.00;90.00
20672;DHT22;10495;50.922;4.760;2022-12-07T01:57:32;6.80;90.40
20672;DHT22;10495;50.922;4.760;2022-12-07T01:59:59;6.80;90.60
20672;DHT22;10495;50.922;4.760;2022-12-07T02:02:35;6.60;90.80
20672;DHT22;10495;50.922;4.760;2022-12-07T02:05:04;6.60;90.90
20672;DHT22;10495;50.922;4.760;2022-12-07T02:07:31;6.80;90.70
20672;DHT22;10495;50.922;4.760;2022-12-07T02:10:11;6.80;90.60
20672;DHT22;10495;50.922;4.760;2022-12-07T02:12:37;6.80;90.60
20672;DHT22;10495;50.922;4.760;2022-12-07T02:15:03;6.80;90.50
20672;DHT22;10495;50.922;4.760;2022-12-07T02:18:19;6.90;90.60
20672;DHT22;10495;50.922;4.760;2022-12-07T02:20:34;6.90;90.20
20672;DHT22;10495;50.922;4.760;2022-12-07T02:29:17;6.70;90.20
20672;DHT22;10495;50.922;4.760;2022-12-07T02:32:03;6.60;90.40
20672;DHT22;10495;50.922;4.760;2022-12-07T02:34:41;6.50;90.70
20672;DHT22;10495;50.922;4.760;2022-12-07T02:37:29;6.40;90.80
20672;DHT22;10495;50.922;4.760;2022-12-07T02:40:22;6.50;90.80
20672;DHT22;10495;50.922;4.760;2022-12-07T02:43:10;6.40;90.70
20672;DHT22;10495;50.922;4.760;2022-12-07T02:45:39;6.40;90.90
20672;DHT22;10495;50.922;4.760;2022-12-07T02:48:07;6.40;90.90
20672;DHT22;10495;50.922;4.760;2022-12-07T02:50:34;6.40;90.90
20672;DHT22;10495;50.922;4.760;2022-12-07T02:53:00;6.40;91.00
20672;DHT22;10495;50.922;4.760;2022-12-07T02:55:29;6.50;90.80
20672;DHT22;10495;50.922;4.760;2022-12-07T02:58:21;6.40;90.80
20672;DHT22;10495;50.922;4.760;2022-12-07T03:01:15;6.50;90.90
20672;DHT22;10495;50.922;4.760;2022-12-07T03:03:48;6.50;91.00
20672;DHT22;10495;50.922;4.760;2022-12-07T03:06:43;6.60;90.60
20672;DHT22;10495;50.922;4.760;2022-12-07T03:09:43;6.60;90.70
20672;DHT22;10495;50.922;4.760;2022-12-07T03:12:27;6.60;90.70
20672;DHT22;10495;50.922;4.760;2022-12-07T03:15:18;6.60;90.60
20672;DHT22;10495;50.922;4.760;2022-12-07T03:17:46;6.40;90.80
20672;DHT22;10495;50.922;4.760;2022-12-07T03:20:14;6.50;90.90
20672;DHT22;10495;50.922;4.760;2022-12-07T03:22:42;6.50;91.00
20672;DHT22;10495;50.922;4.760;2022-12-07T03:25:10;6.50;90.80
20672;DHT22;10495;50.922;4.760;2022-12-07T03:30:20;6.50;90.90
20672;DHT22;10495;50.922;4.760;2022-12-07T03:32:57;6.50;90.80
20672;DHT22;10495;50.922;4.760;2022-12-07T03:35:33;6.40;90.80
20672;DHT22;10495;50.922;4.760;2022-12-07T03:38:40;6.30;90.80
20672;DHT22;10495;50.922;4.760;2022-12-07T03:41:26;6.40;90.80
20672;DHT22;10495;50.922;4.760;2022-12-07T03:43:54;6.30;90.90
20672;DHT22;10495;50.922;4.760;2022-12-07T03:49:27;6.40;90.80
20672;DHT22;10495;50.922;4.760;2022-12-07T03:57:10;6.40;91.10
20672;DHT22;10495;50.922;4.760;2022-12-07T03:59:37;6.40;91.20
20672;DHT22;10495;50.922;4.760;2022-12-07T04:02:06;6.40;91.10
20672;DHT22;10495;50.922;4.760;2022-12-07T04:04:33;6.50;91.00
20672;DHT22;10495;50.922;4.760;2022-12-07T04:06:59;6.50;91.00
20672;DHT22;10495;50.922;4.760;2022-12-07T04:09:24;6.50;90.90
20672;DHT22;10495;50.922;4.760;2022-12-07T04:11:50;6.50;91.00
20672;DHT22;10495;50.922;4.760;2022-12-07T04:14:15;6.50;90.90
20672;DHT22;10495;50.922;4.760;2022-12-07T04:16:57;6.50;90.90
20672;DHT22;10495;50.922;4.760;2022-12-07T04:19:25;6.40;90.80
20672;DHT22;10495;50.922;4.760;2022-12-07T04:21:51;6.50;90.80
20672;DHT22;10495;50.922;4.760;2022-12-07T04:24:17;6.30;90.70
20672;DHT22;10495;50.922;4.760;2022-12-07T04:26:43;6.20;90.60
20672;DHT22;10495;50.922;4.760;2022-12-07T04:29:10;6.10;90.60
20672;DHT22;10495;50.922;4.760;2022-12-07T04:31:36;6.10;90.50
20672;DHT22;10495;50.922;4.760;2022-12-07T04:34:02;6.00;90.50
20672;DHT22;10495;50.922;4.760;2022-12-07T04:36:28;6.00;90.70
20672;DHT22;10495;50.922;4.760;2022-12-07T04:38:55;5.90;90.40
20672;DHT22;10495;50.922;4.760;2022-12-07T04:41:22;5.90;90.40
20672;DHT22;10495;50.922;4.760;2022-12-07T04:43:59;5.80;90.30
20672;DHT22;10495;50.922;4.760;2022-12-07T04:46:27;5.80;90.40
20672;DHT22;10495;50.922;4.760;2022-12-07T04:48:53;5.80;90.40
20672;DHT22;10495;50.922;4.760;2022-12-07T04:51:25;5.80;90.40
20672;DHT22;10495;50.922;4.760;2022-12-07T04:53:51;5.70;90.60
20672;DHT22;10495;50.922;4.760;2022-12-07T04:56:17;5.70;90.70
20672;DHT22;10495;50.922;4.760;2022-12-07T04:58:45;5.80;90.80
20672;DHT22;10495;50.922;4.760;2022-12-07T05:01:11;5.90;90.60
20672;DHT22;10495;50.922;4.760;2022-12-07T05:03:38;5.90;90.70
20672;DHT22;10495;50.922;4.760;2022-12-07T05:06:04;5.90;90.60
20672;DHT22;10495;50.922;4.760;2022-12-07T05:08:31;5.80;90.60
20672;DHT22;10495;50.922;4.760;2022-12-07T05:10:57;5.80;90.60
20672;DHT22;10495;50.922;4.760;2022-12-07T05:13:22;5.80;90.60
20672;DHT22;10495;50.922;4.760;2022-12-07T05:15:49;5.60;90.40
20672;DHT22;10495;50.922;4.760;2022-12-07T05:18:14;5.60;90.50
20672;DHT22;10495;50.922;4.760;2022-12-07T05:20:41;5.60;90.50
20672;DHT22;10495;50.922;4.760;2022-12-07T05:23:06;5.50;90.60
20672;DHT22;10495;50.922;4.760;2022-12-07T05:25:32;5.50;90.80
20672;DHT22;10495;50.922;4.760;2022-12-07T05:27:58;5.60;90.90
20672;DHT22;10495;50.922;4.760;2022-12-07T05:30:24;5.60;90.90
20672;DHT22;10495;50.922;4.760;2022-12-07T05:32:50;5.60;91.10
20672;DHT22;10495;50.922;4.760;2022-12-07T05:35:17;5.60;91.20
20672;DHT22;10495;50.922;4.760;2022-12-07T05:37:43;5.70;91.10
20672;DHT22;10495;50.922;4.760;2022-12-07T05:40:09;5.90;90.80
20672;DHT22;10495;50.922;4.760;2022-12-07T05:42:35;5.90;90.90
20672;DHT22;10495;50.922;4.760;2022-12-07T05:45:01;5.90;91.00
20672;DHT22;10495;50.922;4.760;2022-12-07T05:47:26;5.70;91.20
20672;DHT22;10495;50.922;4.760;2022-12-07T05:49:52;5.60;91.50
20672;DHT22;10495;50.922;4.760;2022-12-07T05:52:18;5.70;91.60
20672;DHT22;10495;50.922;4.760;2022-12-07T05:54:43;5.80;91.50
20672;DHT22;10495;50.922;4.760;2022-12-07T05:57:09;5.90;91.40
20672;DHT22;10495;50.922;4.760;2022-12-07T05:59:35;5.90;91.30
20672;DHT22;10495;50.922;4.760;2022-12-07T06:04:33;5.90;91.20
20672;DHT22;10495;50.922;4.760;2022-12-07T06:07:00;5.90;91.20
20672;DHT22;10495;50.922;4.760;2022-12-07T06:09:27;5.90;91.10
20672;DHT22;10495;50.922;4.760;2022-12-07T06:11:54;5.90;91.10
20672;DHT22;10495;50.922;4.760;2022-12-07T06:14:38;5.90;91.10
20672;DHT22;10495;50.922;4.760;2022-12-07T06:17:04;5.90;91.00
20672;DHT22;10495;50.922;4.760;2022-12-07T06:19:30;5.90;91.00
20672;DHT22;10495;50.922;4.760;2022-12-07T06:21:56;5.80;91.10
20672;DHT22;10495;50.922;4.760;2022-12-07T06:24:22;5.80;91.10
20672;DHT22;10495;50.922;4.760;2022-12-07T06:26:47;5.80;91.10
20672;DHT22;10495;50.922;4.760;2022-12-07T06:29:13;5.90;91.10
20672;DHT22;10495;50.922;4.760;2022-12-07T06:31:40;5.80;91.10
20672;DHT22;10495;50.922;4.760;2022-12-07T06:34:09;5.90;91.30
20672;DHT22;10495;50.922;4.760;2022-12-07T06:36:35;6.00;91.10
20672;DHT22;10495;50.922;4.760;2022-12-07T06:39:02;6.00;91.00
20672;DHT22;10495;50.922;4.760;2022-12-07T06:41:27;6.00;91.00
20672;DHT22;10495;50.922;4.760;2022-12-07T06:43:53;6.00;91.00
20672;DHT22;10495;50.922;4.760;2022-12-07T06:46:19;5.90;91.10
20672;DHT22;10495;50.922;4.760;2022-12-07T06:48:45;6.00;91.10
20672;DHT22;10495;50.922;4.760;2022-12-07T06:51:10;6.00;91.10
20672;DHT22;10495;50.922;4.760;2022-12-07T06:53:36;6.00;91.00
20672;DHT22;10495;50.922;4.760;2022-12-07T06:56:03;6.00;91.10
20672;DHT22;10495;50.922;4.760;2022-12-07T06:58:29;5.90;91.10
20672;DHT22;10495;50.922;4.760;2022-12-07T07:00:55;6.00;91.20
20672;DHT22;10495;50.922;4.760;2022-12-07T07:03:20;6.00;91.10
20672;DHT22;10495;50.922;4.760;2022-12-07T07:05:46;6.00;91.10
20672;DHT22;10495;50.922;4.760;2022-12-07T07:08:12;6.00;91.10
20672;DHT22;10495;50.922;4.760;2022-12-07T07:10:38;6.00;91.10
20672;DHT22;10495;50.922;4.760;2022-12-07T07:13:03;6.10;91.10
20672;DHT22;10495;50.922;4.760;2022-12-07T07:15:30;6.10;91.00
20672;DHT22;10495;50.922;4.760;2022-12-07T07:17:55;6.00;91.10
20672;DHT22;10495;50.922;4.760;2022-12-07T07:20:21;6.00;91.30
20672;DHT22;10495;50.922;4.760;2022-12-07T07:22:47;6.10;91.10
20672;DHT22;10495;50.922;4.760;2022-12-07T07:25:13;6.30;90.90
20672;DHT22;10495;50.922;4.760;2022-12-07T07:27:39;6.20;90.90
20672;DHT22;10495;50.922;4.760;2022-12-07T07:30:05;6.30;90.80
20672;DHT22;10495;50.922;4.760;2022-12-07T07:32:31;6.40;90.50
20672;DHT22;10495;50.922;4.760;2022-12-07T07:34:57;6.50;90.30
20672;DHT22;10495;50.922;4.760;2022-12-07T07:37:23;6.50;90.30
20672;DHT22;10495;50.922;4.760;2022-12-07T07:39:48;6.50;90.30
20672;DHT22;10495;50.922;4.760;2022-12-07T07:42:14;6.40;90.50
20672;DHT22;10495;50.922;4.760;2022-12-07T07:44:40;6.30;90.50
20672;DHT22;10495;50.922;4.760;2022-12-07T07:47:06;6.30;90.60
20672;DHT22;10495;50.922;4.760;2022-12-07T07:49:31;6.10;90.60
20672;DHT22;10495;50.922;4.760;2022-12-07T07:51:57;6.00;90.70
20672;DHT22;10495;50.922;4.760;2022-12-07T07:54:22;6.00;90.70
20672;DHT22;10495;50.922;4.760;2022-12-07T07:56:48;6.00;90.90
20672;DHT22;10495;50.922;4.760;2022-12-07T07:59:14;6.00;90.70
20672;DHT22;10495;50.922;4.760;2022-12-07T08:01:40;5.90;90.60
20672;DHT22;10495;50.922;4.760;2022-12-07T08:04:06;5.90;90.70
20672;DHT22;10495;50.922;4.760;2022-12-07T08:06:31;5.90;90.60
20672;DHT22;10495;50.922;4.760;2022-12-07T08:08:57;5.80;90.60
20672;DHT22;10495;50.922;4.760;2022-12-07T08:11:23;5.80;90.80
20672;DHT22;10495;50.922;4.760;2022-12-07T08:13:49;5.80;90.80
20672;DHT22;10495;50.922;4.760;2022-12-07T08:16:15;5.80;90.50
20672;DHT22;10495;50.922;4.760;2022-12-07T08:18:42;5.80;90.60
20672;DHT22;10495;50.922;4.760;2022-12-07T08:21:11;5.80;90.60
20672;DHT22;10495;50.922;4.760;2022-12-07T08:23:37;5.90;90.70
20672;DHT22;10495;50.922;4.760;2022-12-07T08:26:05;6.00;90.80
20672;DHT22;10495;50.922;4.760;2022-12-07T08:28:31;6.30;90.90
20672;DHT22;10495;50.922;4.760;2022-12-07T08:31:04;6.70;90.80
20672;DHT22;10495;50.922;4.760;2022-12-07T08:33:30;7.10;90.50
20672;DHT22;10495;50.922;4.760;2022-12-07T08:36:03;7.30;90.30
20672;DHT22;10495;50.922;4.760;2022-12-07T08:38:29;7.30;90.30
20672;DHT22;10495;50.922;4.760;2022-12-07T08:40:56;7.40;90.30
20672;DHT22;10495;50.922;4.760;2022-12-07T08:43:22;7.60;90.20
20672;DHT22;10495;50.922;4.760;2022-12-07T08:48:40;7.60;90.10
20672;DHT22;10495;50.922;4.760;2022-12-07T08:51:08;7.50;90.10
20672;DHT22;10495;50.922;4.760;2022-12-07T08:53:34;7.40;90.20
20672;DHT22;10495;50.922;4.760;2022-12-07T08:56:00;7.40;90.40
20672;DHT22;10495;50.922;4.760;2022-12-07T08:58:26;7.30;90.00
20672;DHT22;10495;50.922;4.760;2022-12-07T09:00:52;7.20;90.20
20672;DHT22;10495;50.922;4.760;2022-12-07T09:03:18;7.40;90.40
20672;DHT22;10495;50.922;4.760;2022-12-07T09:05:44;7.30;90.10
20672;DHT22;10495;50.922;4.760;2022-12-07T09:08:09;7.20;90.10
20672;DHT22;10495;50.922;4.760;2022-12-07T09:10:35;7.40;90.40
20672;DHT22;10495;50.922;4.760;2022-12-07T09:13:00;7.80;90.30
20672;DHT22;10495;50.922;4.760;2022-12-07T09:15:27;8.20;89.60
20672;DHT22;10495;50.922;4.760;2022-12-07T09:17:53;8.70;89.00
20672;DHT22;10495;50.922;4.760;2022-12-07T09:20:19;8.90;88.30
20672;DHT22;10495;50.922;4.760;2022-12-07T09:22:44;9.20;87.80
20672;DHT22;10495;50.922;4.760;2022-12-07T09:25:10;9.10;87.10
20672;DHT22;10495;50.922;4.760;2022-12-07T09:27:35;9.00;87.60
20672;DHT22;10495;50.922;4.760;2022-12-07T09:30:01;8.80;87.10
20672;DHT22;10495;50.922;4.760;2022-12-07T09:32:27;8.70;87.40
20672;DHT22;10495;50.922;4.760;2022-12-07T09:34:52;8.60;87.00
20672;DHT22;10495;50.922;4.760;2022-12-07T09:37:18;8.50;86.70
20672;DHT22;10495;50.922;4.760;2022-12-07T09:39:44;8.40;87.20
20672;DHT22;10495;50.922;4.760;2022-12-07T09:45:31;8.30;87.10
20672;DHT22;10495;50.922;4.760;2022-12-07T09:47:58;8.10;87.90
20672;DHT22;10495;50.922;4.760;2022-12-07T09:50:27;8.10;88.30
20672;DHT22;10495;50.922;4.760;2022-12-07T09:52:55;8.20;88.70
20672;DHT22;10495;50.922;4.760;2022-12-07T09:55:28;8.20;89.10
20672;DHT22;10495;50.922;4.760;2022-12-07T09:57:55;8.40;88.70
20672;DHT22;10495;50.922;4.760;2022-12-07T10:00:22;8.30;88.80
20672;DHT22;10495;50.922;4.760;2022-12-07T10:03:01;8.40;89.10
20672;DHT22;10495;50.922;4.760;2022-12-07T10:05:28;8.50;88.90
20672;DHT22;10495;50.922;4.760;2022-12-07T10:07:55;8.50;88.50
20672;DHT22;10495;50.922;4.760;2022-12-07T10:10:27;8.50;88.10
20672;DHT22;10495;50.922;4.760;2022-12-07T10:13:03;8.50;88.30
20672;DHT22;10495;50.922;4.760;2022-12-07T10:20:48;8.40;88.80
20672;DHT22;10495;50.922;4.760;2022-12-07T10:23:16;8.50;88.40
20672;DHT22;10495;50.922;4.760;2022-12-07T10:25:43;8.50;88.90
20672;DHT22;10495;50.922;4.760;2022-12-07T10:30:56;8.60;88.50
20672;DHT22;10495;50.922;4.760;2022-12-07T10:34:00;8.70;88.80
20672;DHT22;10495;50.922;4.760;2022-12-07T10:36:37;8.70;88.60
20672;DHT22;10495;50.922;4.760;2022-12-07T10:39:14;8.80;88.90
20672;DHT22;10495;50.922;4.760;2022-12-07T10:41:57;8.80;88.70
20672;DHT22;10495;50.922;4.760;2022-12-07T10:44:31;9.00;88.50
20672;DHT22;10495;50.922;4.760;2022-12-07T10:50:01;8.80;88.70
20672;DHT22;10495;50.922;4.760;2022-12-07T10:52:44;8.90;88.60
20672;DHT22;10495;50.922;4.760;2022-12-07T11:04:10;8.90;88.00
20672;DHT22;10495;50.922;4.760;2022-12-07T11:06:54;9.00;88.00
20672;DHT22;10495;50.922;4.760;2022-12-07T11:26:48;9.00;87.80
20672;DHT22;10495;50.922;4.760;2022-12-07T11:37:35;9.30;86.30
20672;DHT22;10495;50.922;4.760;2022-12-07T11:43:04;9.20;86.20
20672;DHT22;10495;50.922;4.760;2022-12-07T11:45:37;9.10;86.80
20672;DHT22;10495;50.922;4.760;2022-12-07T11:50:59;9.20;86.70
20672;DHT22;10495;50.922;4.760;2022-12-07T11:53:38;9.00;87.10
20672;DHT22;10495;50.922;4.760;2022-12-07T11:56:13;9.00;87.60
20672;DHT22;10495;50.922;4.760;2022-12-07T12:01:18;9.00;88.00
20672;DHT22;10495;50.922;4.760;2022-12-07T12:03:50;9.00;88.10
20672;DHT22;10495;50.922;4.760;2022-12-07T12:06:17;9.10;88.00
20672;DHT22;10495;50.922;4.760;2022-12-07T12:08:49;9.40;87.80
20672;DHT22;10495;50.922;4.760;2022-12-07T12:11:27;9.40;87.60
20672;DHT22;10495;50.922;4.760;2022-12-07T12:22:23;9.50;85.90
20672;DHT22;10495;50.922;4.760;2022-12-07T12:24:53;9.40;86.60
20672;DHT22;10495;50.922;4.760;2022-12-07T12:27:33;9.30;86.30
20672;DHT22;10495;50.922;4.760;2022-12-07T12:30:02;9.40;85.70
20672;DHT22;10495;50.922;4.760;2022-12-07T12:32:42;9.30;86.20
20672;DHT22;10495;50.922;4.760;2022-12-07T12:38:32;9.30;86.30
20672;DHT22;10495;50.922;4.760;2022-12-07T12:41:01;9.30;86.60
20672;DHT22;10495;50.922;4.760;2022-12-07T12:43:50;9.20;86.50
20672;DHT22;10495;50.922;4.760;2022-12-07T12:55:12;9.40;85.40
20672;DHT22;10495;50.922;4.760;2022-12-07T12:57:38;9.30;86.00
20672;DHT22;10495;50.922;4.760;2022-12-07T13:00:21;9.20;86.70
20672;DHT22;10495;50.922;4.760;2022-12-07T13:02:54;9.40;86.50
20672;DHT22;10495;50.922;4.760;2022-12-07T13:05:29;9.50;86.10
20672;DHT22;10495;50.922;4.760;2022-12-07T13:08:17;9.60;85.70
20672;DHT22;10495;50.922;4.760;2022-12-07T13:10:46;9.50;86.00
20672;DHT22;10495;50.922;4.760;2022-12-07T13:15:41;9.60;86.50
20672;DHT22;10495;50.922;4.760;2022-12-07T13:20:58;9.90;84.80
20672;DHT22;10495;50.922;4.760;2022-12-07T13:26:33;9.70;84.90
20672;DHT22;10495;50.922;4.760;2022-12-07T13:34:02;9.80;82.90
20672;DHT22;10495;50.922;4.760;2022-12-07T13:36:36;9.60;84.00
20672;DHT22;10495;50.922;4.760;2022-12-07T13:41:42;9.30;83.50
20672;DHT22;10495;50.922;4.760;2022-12-07T13:44:13;8.90;83.40
20672;DHT22;10495;50.922;4.760;2022-12-07T13:49:27;8.50;84.00
20672;DHT22;10495;50.922;4.760;2022-12-07T13:51:54;8.50;84.80
20672;DHT22;10495;50.922;4.760;2022-12-07T13:54:21;8.70;84.70
20672;DHT22;10495;50.922;4.760;2022-12-07T13:56:51;8.70;84.70
20672;DHT22;10495;50.922;4.760;2022-12-07T13:59:20;8.60;84.50
20672;DHT22;10495;50.922;4.760;2022-12-07T14:01:48;8.50;84.60
20672;DHT22;10495;50.922;4.760;2022-12-07T14:04:37;8.40;85.10
20672;DHT22;10495;50.922;4.760;2022-12-07T14:07:24;8.40;85.50
20672;DHT22;10495;50.922;4.760;2022-12-07T14:10:24;8.50;85.60
20672;DHT22;10495;50.922;4.760;2022-12-07T14:12:50;8.50;86.60
20672;DHT22;10495;50.922;4.760;2022-12-07T14:15:22;8.50;87.00
20672;DHT22;10495;50.922;4.760;2022-12-07T14:17:53;8.50;87.30
20672;DHT22;10495;50.922;4.760;2022-12-07T14:22:59;8.40;88.40
20672;DHT22;10495;50.922;4.760;2022-12-07T14:25:27;8.40;88.30
20672;DHT22;10495;50.922;4.760;2022-12-07T14:27:56;8.50;88.30
20672;DHT22;10495;50.922;4.760;2022-12-07T14:30:25;8.50;88.60
20672;DHT22;10495;50.922;4.760;2022-12-07T14:33:00;8.50;89.00
20672;DHT22;10495;50.922;4.760;2022-12-07T14:35:27;8.50;88.80
20672;DHT22;10495;50.922;4.760;2022-12-07T14:37:53;8.60;88.50
20672;DHT22;10495;50.922;4.760;2022-12-07T14:40:23;8.50;88.40
20672;DHT22;10495;50.922;4.760;2022-12-07T14:43:10;8.40;88.70
20672;DHT22;10495;50.922;4.760;2022-12-07T14:45:36;8.20;89.00
20672;DHT22;10495;50.922;4.760;2022-12-07T14:48:02;8.20;88.90
20672;DHT22;10495;50.922;4.760;2022-12-07T14:50:28;8.20;88.10
20672;DHT22;10495;50.922;4.760;2022-12-07T14:52:58;8.20;87.80
20672;DHT22;10495;50.922;4.760;2022-12-07T14:55:27;8.30;86.70
20672;DHT22;10495;50.922;4.760;2022-12-07T14:57:53;8.20;87.00
20672;DHT22;10495;50.922;4.760;2022-12-07T15:00:19;8.10;87.60
20672;DHT22;10495;50.922;4.760;2022-12-07T15:02:47;8.00;87.80
20672;DHT22;10495;50.922;4.760;2022-12-07T15:05:13;8.00;87.90
20672;DHT22;10495;50.922;4.760;2022-12-07T15:07:39;8.00;87.80
20672;DHT22;10495;50.922;4.760;2022-12-07T15:10:06;8.00;88.00
20672;DHT22;10495;50.922;4.760;2022-12-07T15:12:31;8.00;88.10
20672;DHT22;10495;50.922;4.760;2022-12-07T15:14:57;8.00;88.20
20672;DHT22;10495;50.922;4.760;2022-12-07T15:17:22;8.00;88.30
20672;DHT22;10495;50.922;4.760;2022-12-07T15:19:48;7.90;88.30
20672;DHT22;10495;50.922;4.760;2022-12-07T15:22:13;8.00;88.20
20672;DHT22;10495;50.922;4.760;2022-12-07T15:24:39;8.00;88.20
20672;DHT22;10495;50.922;4.760;2022-12-07T15:27:05;7.90;88.20
20672;DHT22;10495;50.922;4.760;2022-12-07T15:29:30;7.90;88.10
20672;DHT22;10495;50.922;4.760;2022-12-07T15:31:56;7.90;88.00
20672;DHT22;10495;50.922;4.760;2022-12-07T15:34:27;7.80;87.90
20672;DHT22;10495;50.922;4.760;2022-12-07T15:36:54;7.70;88.20
20672;DHT22;10495;50.922;4.760;2022-12-07T15:39:19;7.60;88.00
20672;DHT22;10495;50.922;4.760;2022-12-07T15:41:45;7.50;87.90
20672;DHT22;10495;50.922;4.760;2022-12-07T15:44:12;7.50;87.80
20672;DHT22;10495;50.922;4.760;2022-12-07T15:46:56;7.60;87.70
20672;DHT22;10495;50.922;4.760;2022-12-07T15:49:22;7.60;87.50
20672;DHT22;10495;50.922;4.760;2022-12-07T15:51:47;7.50;87.30
20672;DHT22;10495;50.922;4.760;2022-12-07T15:54:28;7.40;87.80
20672;DHT22;10495;50.922;4.760;2022-12-07T15:56:54;7.30;88.00
20672;DHT22;10495;50.922;4.760;2022-12-07T15:59:20;7.40;87.80
20672;DHT22;10495;50.922;4.760;2022-12-07T16:01:46;7.30;88.00
20672;DHT22;10495;50.922;4.760;2022-12-07T16:04:12;7.30;88.80
20672;DHT22;10495;50.922;4.760;2022-12-07T16:06:38;7.30;88.40
20672;DHT22;10495;50.922;4.760;2022-12-07T16:09:04;7.30;88.40
20672;DHT22;10495;50.922;4.760;2022-12-07T16:11:30;7.20;88.70
20672;DHT22;10495;50.922;4.760;2022-12-07T16:13:55;7.20;88.90
20672;DHT22;10495;50.922;4.760;2022-12-07T16:16:21;7.30;89.00
20672;DHT22;10495;50.922;4.760;2022-12-07T16:18:49;7.20;88.70
20672;DHT22;10495;50.922;4.760;2022-12-07T16:21:20;7.20;89.10
20672;DHT22;10495;50.922;4.760;2022-12-07T16:23:46;7.20;89.10
20672;DHT22;10495;50.922;4.760;2022-12-07T16:26:15;7.20;89.00
20672;DHT22;10495;50.922;4.760;2022-12-07T16:28:42;7.20;89.20
20672;DHT22;10495;50.922;4.760;2022-12-07T16:31:10;7.30;89.40
20672;DHT22;10495;50.922;4.760;2022-12-07T16:33:37;7.20;89.50
20672;DHT22;10495;50.922;4.760;2022-12-07T16:36:04;7.20;89.60
20672;DHT22;10495;50.922;4.760;2022-12-07T16:38:31;7.20;89.40
20672;DHT22;10495;50.922;4.760;2022-12-07T16:40:56;7.20;89.40
20672;DHT22;10495;50.922;4.760;2022-12-07T16:43:23;7.20;89.40
20672;DHT22;10495;50.922;4.760;2022-12-07T16:45:49;7.40;89.10
20672;DHT22;10495;50.922;4.760;2022-12-07T16:48:16;7.30;88.90
20672;DHT22;10495;50.922;4.760;2022-12-07T16:50:42;7.40;89.00
20672;DHT22;10495;50.922;4.760;2022-12-07T16:53:09;7.30;89.00
20672;DHT22;10495;50.922;4.760;2022-12-07T16:55:41;7.30;89.20
20672;DHT22;10495;50.922;4.760;2022-12-07T16:58:07;7.20;89.40
20672;DHT22;10495;50.922;4.760;2022-12-07T17:00:33;7.20;89.50
20672;DHT22;10495;50.922;4.760;2022-12-07T17:02:59;7.30;89.30
20672;DHT22;10495;50.922;4.760;2022-12-07T17:05:26;7.30;89.20
20672;DHT22;10495;50.922;4.760;2022-12-07T17:07:53;7.20;89.50
20672;DHT22;10495;50.922;4.760;2022-12-07T17:10:19;7.20;89.60
20672;DHT22;10495;50.922;4.760;2022-12-07T17:12:45;7.30;90.00
20672;DHT22;10495;50.922;4.760;2022-12-07T17:15:10;7.30;89.60
20672;DHT22;10495;50.922;4.760;2022-12-07T17:17:54;7.20;89.80
20672;DHT22;10495;50.922;4.760;2022-12-07T17:20:22;7.20;89.90
20672;DHT22;10495;50.922;4.760;2022-12-07T17:22:48;7.30;89.90
20672;DHT22;10495;50.922;4.760;2022-12-07T17:25:15;7.30;89.70
20672;DHT22;10495;50.922;4.760;2022-12-07T17:27:42;7.40;89.90
20672;DHT22;10495;50.922;4.760;2022-12-07T17:30:09;7.30;89.80
20672;DHT22;10495;50.922;4.760;2022-12-07T17:32:35;7.30;89.80
20672;DHT22;10495;50.922;4.760;2022-12-07T17:35:01;7.40;90.00
20672;DHT22;10495;50.922;4.760;2022-12-07T17:37:27;7.30;89.60
20672;DHT22;10495;50.922;4.760;2022-12-07T17:39:53;7.30;89.90
20672;DHT22;10495;50.922;4.760;2022-12-07T17:42:23;7.30;89.90
20672;DHT22;10495;50.922;4.760;2022-12-07T17:45:08;7.40;89.60
20672;DHT22;10495;50.922;4.760;2022-12-07T17:47:35;7.40;89.30
20672;DHT22;10495;50.922;4.760;2022-12-07T17:50:01;7.30;89.50
20672;DHT22;10495;50.922;4.760;2022-12-07T17:52:27;7.40;89.50
20672;DHT22;10495;50.922;4.760;2022-12-07T17:55:11;7.40;89.40
20672;DHT22;10495;50.922;4.760;2022-12-07T17:57:36;7.30;89.60
20672;DHT22;10495;50.922;4.760;2022-12-07T18:00:04;7.20;89.90
20672;DHT22;10495;50.922;4.760;2022-12-07T18:02:30;7.20;89.60